Time;durP1;ratioP1;P1;durP2;ratioP2;P2;SDS_P1;SDS_P2;PMS_P1;PMS_P2;Temp;Humidity;BMP_temperature;BMP_pressure;BME280_temperature;BME280_humidity;BME280_pressure;Samples;Min_cycle;Max_cycle;Signal;HPM_P1;HPM_P2
2022/06/07 00:01:22;;;;;;;4.47;1.20;;;15.60;99.90;;;16.45;100.00;98057.28;4998342;28;20815;-76
2022/06/07 00:03:53;;;;;;;1.73;1.30;;;15.60;99.90;;;16.44;100.00;98060.97;4999732;28;20840;-76
2022/06/07 00:06:22;;;;;;;1.20;1.00;;;15.60;99.90;;;16.43;100.00;98064.63;4999782;28;20567;-76
2022/06/07 00:08:51;;;;;;;6.10;1.27;;;15.60;99.90;;;16.44;100.00;98060.16;4999320;28;20470;-76
2022/06/07 00:11:22;;;;;;;1.90;1.27;;;15.50;99.90;;;16.42;100.00;98062.19;4997758;28;20463;-76
2022/06/07 00:13:52;;;;;;;2.13;1.27;;;15.60;99.90;;;16.37;100.00;98057.63;4998884;28;20503;-76
2022/06/07 00:16:22;;;;;;;6.80;1.20;;;15.60;99.90;;;16.33;100.00;98059.09;4997103;28;20507;-76
2022/06/07 00:18:53;;;;;;;4.50;1.10;;;15.50;99.90;;;16.32;100.00;98060.09;4999608;28;20475;-76
2022/06/07 00:21:23;;;;;;;1.30;1.10;;;15.50;99.90;;;16.32;100.00;98064.56;4999234;28;20467;-76
2022/06/07 00:23:54;;;;;;;3.93;1.30;;;15.50;99.90;;;16.31;100.00;98061.16;4998747;28;20546;-76
2022/06/07 00:26:26;;;;;;;3.00;1.70;;;15.40;99.90;;;16.27;100.00;98059.97;4996510;28;21029;-76
2022/06/07 00:28:57;;;;;;;2.77;1.20;;;15.40;99.90;;;16.28;100.00;98058.16;4999367;28;20480;-76
2022/06/07 00:31:27;;;;;;;3.10;2.07;;;15.40;99.90;;;16.26;100.00;98050.44;4998814;28;20552;-76
2022/06/07 00:33:58;;;;;;;5.87;1.40;;;15.40;99.90;;;16.26;100.00;98052.28;4997783;28;20468;-76
2022/06/07 00:36:29;;;;;;;2.53;1.00;;;15.40;99.90;;;16.23;100.00;98048.25;4999652;28;20455;-77
2022/06/07 00:38:57;;;;;;;2.83;1.23;;;15.40;99.90;;;16.21;100.00;98042.38;4999390;28;20497;-76
2022/06/07 00:41:29;;;;;;;1.83;1.30;;;15.40;99.90;;;16.18;100.00;98040.19;5000479;28;20463;-76
2022/06/07 00:44:35;;;;;;;2.07;1.10;;;15.30;99.90;;;16.15;100.00;98043.28;4997921;28;20982;-76
2022/06/07 00:47:11;;;;;;;4.47;1.60;;;15.30;99.90;;;16.16;100.00;98047.53;4997614;28;20877;-76
2022/06/07 00:49:50;;;;;;;4.13;1.30;;;15.30;99.90;;;16.16;100.00;98047.53;5001053;28;20452;-76
2022/06/07 00:52:24;;;;;;;1.97;1.20;;;15.20;99.90;;;16.15;100.00;98045.91;4995291;28;20513;-76
2022/06/07 00:54:53;;;;;;;2.17;1.20;;;15.30;99.90;;;16.12;100.00;98046.38;4998627;28;20471;-76
2022/06/07 00:57:25;;;;;;;4.03;1.30;;;15.30;99.90;;;16.11;100.00;98039.47;4997978;28;21088;-76
2022/06/07 00:59:55;;;;;;;3.60;1.20;;;15.20;99.90;;;16.09;100.00;98044.16;4996722;28;20502;-76
2022/06/07 01:02:25;;;;;;;1.93;1.10;;;15.20;99.90;;;16.04;100.00;98044.03;4996023;28;20472;-76
2022/06/07 01:04:56;;;;;;;10.93;1.57;;;15.20;99.90;;;16.02;100.00;98044.25;4999818;28;20462;-76
2022/06/07 01:13:00;;;;;;;5.07;1.30;;;15.10;99.90;;;15.90;100.00;98043.38;4999591;28;20463;-76
2022/06/07 01:15:29;;;;;;;2.63;1.30;;;15.10;99.90;;;15.85;100.00;98040.59;4997440;28;20467;-76
2022/06/07 01:17:59;;;;;;;2.30;1.50;;;15.10;99.90;;;15.87;100.00;98043.00;4996561;28;20473;-76
2022/06/07 01:20:30;;;;;;;3.20;1.20;;;15.00;99.90;;;15.86;100.00;98036.13;4996623;28;21079;-76
2022/06/07 01:23:00;;;;;;;1.50;1.30;;;15.00;99.90;;;15.85;100.00;98039.81;4995892;28;20513;-77
2022/06/07 01:25:30;;;;;;;2.30;1.07;;;15.00;99.90;;;15.80;100.00;98037.81;4997078;28;20546;-76
2022/06/07 01:28:01;;;;;;;1.87;1.30;;;15.00;99.90;;;15.77;100.00;98042.72;4996002;28;21093;-76
2022/06/07 01:30:30;;;;;;;1.97;1.20;;;14.90;99.90;;;15.79;100.00;98035.41;4997595;28;20550;-77
2022/06/07 01:33:01;;;;;;;1.70;1.20;;;14.80;99.90;;;15.76;100.00;98041.91;4998927;28;20471;-76
2022/06/07 01:35:32;;;;;;;1.50;1.20;;;14.80;99.90;;;15.76;100.00;98030.59;4996107;28;20927;-76
2022/06/07 01:38:03;;;;;;;2.93;1.37;;;14.80;99.90;;;15.74;100.00;98037.88;4998663;28;20455;-76
2022/06/07 01:43:29;;;;;;;3.90;1.47;;;14.80;99.90;;;15.66;100.00;98023.16;4968910;28;20863;-76
2022/06/07 01:46:05;;;;;;;6.10;1.40;;;14.80;99.90;;;15.63;100.00;98026.25;4998918;28;20902;-76
2022/06/07 01:48:35;;;;;;;1.40;1.20;;;14.80;99.90;;;15.59;100.00;98027.69;4999665;28;20975;-77
2022/06/07 01:51:07;;;;;;;2.90;1.30;;;14.80;99.90;;;15.56;100.00;98015.78;4999330;28;20520;-76
2022/06/07 01:53:39;;;;;;;5.87;1.47;;;14.80;99.90;;;15.58;100.00;98024.25;4998102;28;20467;-76
2022/06/07 01:56:14;;;;;;;5.47;1.20;;;14.70;99.90;;;15.60;100.00;98016.13;4996871;28;20543;-76
2022/06/07 01:58:45;;;;;;;2.50;1.20;;;14.60;99.90;;;15.63;100.00;98020.16;4996957;28;20978;-76
2022/06/07 02:01:15;;;;;;;2.07;1.23;;;14.60;99.90;;;15.63;100.00;98013.06;4996800;28;20451;-76
2022/06/07 02:03:45;;;;;;;2.97;1.20;;;14.60;99.90;;;15.56;100.00;98021.03;4998664;28;20510;-76
2022/06/07 02:06:15;;;;;;;4.57;1.53;;;14.70;99.90;;;15.57;100.00;98019.22;4997622;28;20465;-76
2022/06/07 02:08:46;;;;;;;5.10;1.30;;;14.60;99.90;;;15.61;100.00;98015.13;4997770;28;20462;-76
2022/06/07 02:11:20;;;;;;;2.23;1.40;;;14.60;99.90;;;15.54;100.00;98015.19;5000349;28;20470;-76
2022/06/07 02:13:50;;;;;;;4.10;1.43;;;14.60;99.90;;;15.51;100.00;98028.81;4998934;28;20478;-76
2022/06/07 02:16:23;;;;;;;5.00;1.30;;;14.60;99.90;;;15.47;100.00;98014.44;4999117;28;20837;-76
2022/06/07 02:18:53;;;;;;;1.60;1.37;;;14.60;99.90;;;15.42;100.00;98024.81;4999681;28;20509;-76
2022/06/07 02:21:24;;;;;;;1.57;1.10;;;14.60;99.90;;;15.36;100.00;98025.69;4994826;28;20514;-76
2022/06/07 02:23:55;;;;;;;3.00;1.30;;;14.60;99.90;;;15.33;100.00;98020.84;4997383;28;20562;-76
2022/06/07 02:26:30;;;;;;;4.20;1.43;;;14.50;99.90;;;15.31;100.00;98025.53;4993542;28;20491;-76
2022/06/07 02:29:07;;;;;;;5.33;1.40;;;14.50;99.90;;;15.34;100.00;98019.81;4999468;28;20520;-76
2022/06/07 02:31:39;;;;;;;2.40;1.40;;;14.40;99.90;;;15.33;100.00;98012.94;4995876;28;20545;-76
2022/06/07 02:34:11;;;;;;;1.40;1.30;;;14.40;99.90;;;15.29;100.00;98017.03;4994908;28;20463;-77
2022/06/07 02:36:41;;;;;;;6.80;1.20;;;14.30;99.90;;;15.28;100.00;98015.41;5000424;28;20970;-76
2022/06/07 02:39:13;;;;;;;7.93;1.77;;;14.30;99.90;;;15.20;100.00;98013.09;5002953;28;20440;-76
2022/06/07 02:41:43;;;;;;;2.53;1.23;;;14.30;99.90;;;15.19;100.00;98006.19;5002717;28;20501;-76
2022/06/07 02:44:12;;;;;;;1.23;1.03;;;14.30;99.90;;;15.13;100.00;98015.75;5004360;28;20495;-76
2022/06/07 02:46:42;;;;;;;2.67;1.57;;;14.30;99.90;;;15.02;100.00;98005.94;5000725;28;20459;-76
2022/06/07 02:49:12;;;;;;;4.37;1.53;;;14.20;99.90;;;14.99;100.00;98011.63;5003620;28;20448;-76
2022/06/07 02:51:42;;;;;;;4.10;1.23;;;14.20;99.90;;;14.98;100.00;98012.66;5003197;28;20501;-76
2022/06/07 02:54:13;;;;;;;3.43;1.37;;;14.10;99.90;;;14.91;100.00;98009.28;5002876;28;20943;-76
2022/06/07 02:56:43;;;;;;;2.97;1.40;;;14.10;99.90;;;14.88;100.00;98003.63;5000129;28;20462;-75
2022/06/07 02:59:13;;;;;;;2.27;1.40;;;14.10;99.90;;;14.81;100.00;98008.94;4997627;28;20502;-76
2022/06/07 03:01:43;;;;;;;5.07;1.20;;;14.10;99.90;;;14.66;100.00;98008.44;5000306;28;20479;-76
2022/06/07 03:04:13;;;;;;;1.40;1.10;;;14.10;99.90;;;14.69;100.00;98015.09;5000923;28;20530;-76
2022/06/07 03:06:44;;;;;;;2.70;1.80;;;14.00;99.90;;;14.67;100.00;98011.88;5000601;28;20459;-76
2022/06/07 03:09:16;;;;;;;2.73;1.40;;;14.00;99.90;;;14.67;100.00;98009.25;4999351;28;20462;-76
2022/06/07 03:11:45;;;;;;;2.30;1.10;;;13.90;99.90;;;14.64;100.00;98009.69;5002597;28;20929;-84
2022/06/07 03:14:14;;;;;;;2.60;1.20;;;13.90;99.90;;;14.55;100.00;98009.94;5016189;28;20466;-75
2022/06/07 03:16:44;;;;;;;1.97;1.30;;;13.90;99.90;;;14.56;100.00;98011.56;5003768;28;20525;-75
2022/06/07 03:19:14;;;;;;;3.87;1.20;;;13.80;99.90;;;14.53;100.00;98019.06;5000314;28;20963;-77
2022/06/07 03:21:44;;;;;;;2.53;1.13;;;13.70;99.90;;;14.52;100.00;98007.75;4999019;28;20455;-75
2022/06/07 03:24:17;;;;;;;6.83;3.90;;;13.70;99.90;;;14.45;100.00;98019.31;5007047;28;20496;-76
2022/06/07 03:26:47;;;;;;;3.03;1.30;;;13.70;99.90;;;14.42;100.00;98017.94;4999915;28;20499;-76
2022/06/07 03:29:17;;;;;;;3.93;1.20;;;13.70;99.90;;;14.47;100.00;98015.44;5001788;28;20889;-76
2022/06/07 03:31:48;;;;;;;5.93;1.30;;;13.60;99.90;;;14.49;100.00;98015.25;5002105;28;20848;-75
2022/06/07 03:34:19;;;;;;;1.93;1.23;;;13.60;99.90;;;14.44;100.00;98026.41;5003045;28;20459;-76
2022/06/07 03:36:49;;;;;;;1.47;1.20;;;13.60;99.90;;;14.39;100.00;98018.34;5001023;28;20455;-76
2022/06/07 03:39:19;;;;;;;1.83;1.60;;;13.60;99.90;;;14.33;100.00;98021.81;5000613;28;20468;-76
2022/06/07 03:41:49;;;;;;;2.27;1.43;;;13.60;99.90;;;14.39;100.00;98030.69;5001930;28;20459;-76
2022/06/07 03:44:19;;;;;;;1.93;1.30;;;13.50;99.90;;;14.36;100.00;98021.41;5001244;28;20560;-75
2022/06/07 03:46:49;;;;;;;5.13;1.40;;;13.50;99.90;;;14.29;100.00;98020.63;4994644;28;20456;-76
2022/06/07 03:49:18;;;;;;;2.73;1.20;;;13.50;99.90;;;14.32;100.00;98022.00;5000911;28;20468;-76
2022/06/07 03:51:49;;;;;;;2.97;1.53;;;13.50;99.90;;;14.35;100.00;98024.25;4994108;28;20471;-76
2022/06/07 03:54:20;;;;;;;1.73;1.20;;;13.40;99.90;;;14.39;100.00;98023.63;4993866;28;21333;-75
2022/06/07 03:56:50;;;;;;;1.30;1.10;;;13.40;99.90;;;14.34;100.00;98028.69;4997679;28;20462;-76
2022/06/07 03:59:21;;;;;;;2.43;1.23;;;13.40;99.90;;;14.37;100.00;98025.63;4998209;28;20456;-76
2022/06/07 04:01:51;;;;;;;4.90;1.50;;;13.40;99.90;;;14.29;100.00;98036.41;4993849;28;20475;-76
2022/06/07 04:04:20;;;;;;;1.30;1.20;;;13.40;99.90;;;14.28;100.00;98021.63;4995581;28;20506;-76
2022/06/07 04:09:40;;;;;;;3.40;1.50;;;13.40;99.90;;;14.21;100.00;98031.38;4997739;28;20458;-76
2022/06/07 04:12:14;;;;;;;2.40;1.37;;;13.30;99.90;;;14.21;100.00;98026.09;4998821;28;20463;-76
2022/06/07 04:14:46;;;;;;;3.20;1.73;;;13.30;99.90;;;14.24;100.00;98025.69;5000027;28;20467;-76
2022/06/07 04:17:15;;;;;;;1.97;1.30;;;13.30;99.90;;;14.25;100.00;98029.13;5001464;28;20467;-75
2022/06/07 04:19:45;;;;;;;4.93;1.60;;;13.30;99.90;;;14.23;100.00;98034.59;5000373;28;20448;-75
2022/06/07 04:22:13;;;;;;;2.83;1.40;;;13.30;99.90;;;14.23;100.00;98025.91;5005500;28;20459;-76
2022/06/07 04:24:44;;;;;;;1.67;1.37;;;13.30;99.90;;;14.26;100.00;98023.66;5000394;28;20997;-76
2022/06/07 04:27:14;;;;;;;4.87;1.60;;;13.30;99.90;;;14.28;100.00;98029.50;4997501;28;20492;-75
2022/06/07 04:29:44;;;;;;;3.10;1.50;;;13.30;99.90;;;14.27;100.00;98027.88;4996104;28;20474;-76
2022/06/07 04:32:16;;;;;;;5.50;2.10;;;13.30;99.90;;;14.27;100.00;98035.78;4998906;28;20470;-76
2022/06/07 04:34:45;;;;;;;1.47;1.37;;;13.30;99.90;;;14.30;100.00;98024.84;5001153;28;20531;-76
2022/06/07 04:37:17;;;;;;;1.60;1.40;;;13.40;99.90;;;14.33;100.00;98034.97;4998761;28;20842;-76
2022/06/07 04:39:48;;;;;;;3.10;1.30;;;13.40;99.90;;;14.32;100.00;98033.34;5001844;28;20930;-76
2022/06/07 04:42:16;;;;;;;8.03;1.70;;;13.40;99.90;;;14.35;100.00;98038.22;5003083;28;20467;-76
2022/06/07 04:44:48;;;;;;;1.43;1.30;;;13.50;99.90;;;14.36;100.00;98034.56;4998965;28;21136;-76
2022/06/07 04:47:19;;;;;;;9.20;1.53;;;13.50;99.90;;;14.36;100.00;98034.56;5000315;28;20443;-76
2022/06/07 04:49:48;;;;;;;4.40;1.80;;;13.50;99.90;;;14.41;100.00;98039.97;5003086;28;20491;-76
2022/06/07 04:52:19;;;;;;;3.77;1.37;;;13.50;99.90;;;14.46;100.00;98034.91;4998468;28;20454;-76
2022/06/07 04:54:51;;;;;;;2.13;1.60;;;13.50;99.90;;;14.49;100.00;98037.13;5001305;28;20452;-76
2022/06/07 04:57:22;;;;;;;3.83;1.30;;;13.50;99.90;;;14.53;100.00;98032.22;5000760;28;20465;-76
2022/06/07 04:59:51;;;;;;;2.00;1.60;;;13.60;99.90;;;14.57;100.00;98036.06;4996947;28;20831;-76
2022/06/07 05:02:21;;;;;;;6.33;1.40;;;13.50;99.90;;;14.54;100.00;98039.91;5000053;28;20484;-76
2022/06/07 05:04:51;;;;;;;1.60;1.20;;;13.60;99.90;;;14.59;100.00;98034.81;4999958;28;20498;-76
2022/06/07 05:07:20;;;;;;;2.37;1.60;;;13.60;99.90;;;14.62;100.00;98033.56;5001231;28;20492;-76
2022/06/07 05:09:51;;;;;;;4.10;2.07;;;13.70;99.90;;;14.66;100.00;98039.22;5001497;28;20468;-76
2022/06/07 05:12:20;;;;;;;12.67;1.93;;;13.70;99.90;;;14.66;100.00;98042.66;4999232;28;20451;-76
2022/06/07 05:14:51;;;;;;;3.43;1.33;;;13.70;99.90;;;14.72;100.00;98046.25;5000104;28;20479;-76
2022/06/07 05:17:21;;;;;;;4.27;1.43;;;13.70;99.90;;;14.74;100.00;98042.41;5000794;28;20459;-75
2022/06/07 05:19:51;;;;;;;3.00;1.50;;;13.80;99.90;;;14.80;100.00;98043.38;5000767;28;20840;-76
2022/06/07 05:22:21;;;;;;;3.00;1.80;;;13.90;99.90;;;14.84;100.00;98041.94;5001635;28;20559;-76
2022/06/07 05:24:52;;;;;;;3.13;1.40;;;13.90;99.90;;;14.88;100.00;98037.88;5001819;28;20499;-76
2022/06/07 05:27:25;;;;;;;2.17;1.60;;;13.90;99.90;;;14.93;100.00;98035.38;4999143;28;20562;-76
2022/06/07 05:29:57;;;;;;;2.50;1.60;;;14.00;99.90;;;14.98;100.00;98043.44;5000727;28;20459;-76
2022/06/07 05:32:27;;;;;;;4.50;1.50;;;14.10;99.90;;;14.98;100.00;98040.81;5001242;28;20490;-76
2022/06/07 05:34:57;;;;;;;1.63;1.43;;;14.10;99.90;;;15.03;100.00;98036.50;5003546;28;20443;-76
2022/06/07 05:37:27;;;;;;;1.60;1.40;;;14.20;99.90;;;15.10;100.00;98044.34;4999728;28;20881;-76
2022/06/07 05:39:58;;;;;;;2.00;1.50;;;14.30;99.90;;;15.14;100.00;98037.63;5000649;28;20446;-75
2022/06/07 05:42:28;;;;;;;3.43;2.00;;;14.40;99.90;;;15.18;100.00;98028.28;5002889;28;20447;-76
2022/06/07 05:45:00;;;;;;;3.03;1.77;;;14.40;99.90;;;15.22;100.00;98045.28;5000111;28;20574;-76
2022/06/07 05:47:31;;;;;;;2.00;1.60;;;14.40;99.90;;;15.27;100.00;98042.00;5000009;28;20466;-75
2022/06/07 05:50:04;;;;;;;1.73;1.50;;;14.40;99.90;;;15.31;100.00;98041.31;5001479;28;20468;-76
2022/06/07 05:52:36;;;;;;;3.73;1.30;;;14.50;99.90;;;15.34;100.00;98043.53;4999545;28;20459;-76
2022/06/07 05:55:09;;;;;;;5.03;1.60;;;14.50;99.90;;;15.40;100.00;98053.22;5000480;28;20958;-76
2022/06/07 05:57:39;;;;;;;3.20;1.30;;;14.50;99.90;;;15.44;100.00;98049.13;5001099;28;20464;-76
2022/06/07 06:00:13;;;;;;;1.80;1.43;;;14.50;99.90;;;15.46;100.00;98041.00;5001693;28;20455;-76
2022/06/07 06:02:42;;;;;;;3.50;1.70;;;14.60;99.90;;;15.50;100.00;98047.47;4998176;28;21119;-76
2022/06/07 06:05:13;;;;;;;14.93;2.23;;;14.60;99.90;;;15.53;100.00;98042.56;4999890;28;20478;-76
2022/06/07 06:10:27;;;;;;;1.93;1.40;;;14.80;99.90;;;15.65;100.00;98042.66;4999400;28;20467;-76
2022/06/07 06:12:57;;;;;;;3.70;1.33;;;14.80;99.90;;;15.68;100.00;98044.03;5003996;28;20468;-76
2022/06/07 06:15:28;;;;;;;4.20;1.60;;;14.80;99.90;;;15.73;100.00;98045.00;5004836;28;20467;-77
2022/06/07 06:17:57;;;;;;;1.87;1.53;;;14.90;99.90;;;15.76;100.00;98046.41;5007051;28;20451;-76
2022/06/07 06:20:28;;;;;;;3.07;1.53;;;15.00;99.90;;;15.78;100.00;98036.44;5006008;28;20464;-76
2022/06/07 06:23:00;;;;;;;1.97;1.50;;;14.90;99.90;;;15.77;100.00;98042.72;5003573;28;20546;-76
2022/06/07 06:25:33;;;;;;;2.70;1.70;;;14.90;99.90;;;15.80;100.00;98044.91;5001985;28;20556;-76
2022/06/07 06:28:04;;;;;;;2.53;1.33;;;15.00;99.90;;;15.83;100.00;98041.84;5004750;28;20857;-76
2022/06/07 06:30:34;;;;;;;2.33;1.40;;;15.10;99.90;;;15.82;100.00;98041.06;5002809;28;20510;-76
2022/06/07 06:33:03;;;;;;;3.20;1.30;;;15.20;99.90;;;15.84;100.00;98038.19;5005753;28;20451;-76
2022/06/07 06:35:34;;;;;;;3.43;1.70;;;15.10;99.90;;;15.90;100.00;98037.28;5004652;28;20463;-76
2022/06/07 06:38:03;;;;;;;5.00;1.40;;;15.10;99.90;;;15.99;100.00;98028.06;5004484;28;20467;-76
2022/06/07 06:40:34;;;;;;;2.30;1.30;;;15.30;99.90;;;16.02;100.00;98027.63;5004629;28;20541;-76
2022/06/07 06:43:04;;;;;;;2.17;1.67;;;15.30;99.90;;;16.09;100.00;98033.63;5003678;28;20949;-76
2022/06/07 06:45:34;;;;;;;2.33;1.83;;;15.40;99.90;;;16.12;100.00;98030.53;5004866;28;20593;-76
2022/06/07 06:48:06;;;;;;;5.27;2.00;;;15.30;99.90;;;16.19;100.00;98035.72;5005714;28;20457;-76
2022/06/07 06:50:37;;;;;;;3.70;1.70;;;15.40;99.90;;;16.31;100.00;98033.94;5003840;28;20474;-76
2022/06/07 06:53:07;;;;;;;3.50;1.30;;;15.60;99.90;;;16.41;100.00;98040.31;5004264;28;20459;-76
2022/06/07 06:55:43;;;;;;;2.83;1.37;;;15.70;99.90;;;16.51;100.00;98037.94;5002763;28;20463;-76
2022/06/07 06:58:13;;;;;;;1.90;1.40;;;15.80;99.90;;;16.62;100.00;98027.66;5004649;28;20526;-75
2022/06/07 07:00:43;;;;;;;6.63;1.60;;;15.90;99.90;;;16.69;100.00;98023.91;5004231;28;20958;-76
2022/06/07 07:03:14;;;;;;;3.77;1.53;;;16.00;99.90;;;16.76;100.00;98029.88;5004336;28;20490;-76
2022/06/07 07:05:52;;;;;;;5.27;1.90;;;16.00;99.90;;;16.86;100.00;98030.13;5005013;28;20482;-76
2022/06/07 07:08:23;;;;;;;5.23;1.80;;;16.10;99.90;;;16.97;100.00;98024.03;5003251;28;20457;-76
2022/06/07 07:11:08;;;;;;;4.10;1.83;;;16.30;99.90;;;17.02;100.00;98031.28;5003258;28;20522;-76
2022/06/07 07:13:39;;;;;;;1.90;1.33;;;16.20;99.90;;;17.13;100.00;98022.56;5001104;28;21059;-76
2022/06/07 07:16:10;;;;;;;3.47;1.50;;;16.30;99.90;;;17.23;100.00;98017.50;5001651;28;20459;-77
2022/06/07 07:18:41;;;;;;;3.87;1.50;;;16.50;99.90;;;17.33;100.00;98017.75;5003598;28;20459;-76
2022/06/07 07:21:15;;;;;;;1.80;1.40;;;16.60;99.90;;;17.44;100.00;98016.94;5004511;28;20470;-76
2022/06/07 07:23:46;;;;;;;3.10;1.23;;;16.70;99.90;;;17.54;100.00;98017.16;5003897;28;20486;-76
2022/06/07 07:26:21;;;;;;;6.77;1.50;;;16.90;99.90;;;17.63;100.00;98020.28;5002702;28;20537;-77
2022/06/07 07:28:53;;;;;;;4.53;1.40;;;16.90;99.90;;;17.66;100.00;98027.75;5004253;28;20486;-76
2022/06/07 07:31:25;;;;;;;2.13;1.27;;;16.90;99.90;;;17.72;100.00;98031.28;5004241;28;20867;-76
2022/06/07 07:33:58;;;;;;;3.20;1.33;;;17.00;99.90;;;17.75;100.00;98036.13;5002910;28;20816;-76
2022/06/07 07:36:29;;;;;;;6.83;2.10;;;17.00;99.90;;;17.76;100.00;98035.09;5003973;28;20444;-76
2022/06/07 07:38:59;;;;;;;1.20;1.00;;;17.00;99.90;;;17.74;100.00;98029.22;5003625;28;20467;-76
2022/06/07 07:41:34;;;;;;;3.83;1.40;;;17.10;99.90;;;17.80;100.00;98031.75;5004647;28;20962;-76
2022/06/07 07:44:09;;;;;;;5.83;1.33;;;17.00;99.90;;;17.85;100.00;98031.03;5002571;28;20450;-76
2022/06/07 07:46:40;;;;;;;8.93;1.47;;;17.00;99.90;;;17.95;100.00;98020.66;5000875;28;21054;-76
2022/06/07 07:49:13;;;;;;;1.70;1.30;;;17.20;99.90;;;17.92;100.00;98021.94;5002030;28;20503;-76
2022/06/07 07:51:46;;;;;;;1.73;1.33;;;17.10;99.90;;;17.99;100.00;98022.59;5001621;28;20467;-76
2022/06/07 07:54:19;;;;;;;6.87;1.27;;;17.10;99.90;;;18.11;100.00;98014.63;5002413;28;20444;-77
2022/06/07 07:56:50;;;;;;;2.10;1.27;;;17.40;99.90;;;18.19;100.00;98016.13;5004839;28;20513;-76
2022/06/07 07:59:21;;;;;;;2.80;1.57;;;17.50;99.90;;;18.26;100.00;98014.91;5001768;28;20975;-76
2022/06/07 08:01:51;;;;;;;6.00;1.47;;;17.50;99.90;;;18.33;100.00;98022.69;5002608;28;20464;-76
2022/06/07 08:04:21;;;;;;;6.03;1.50;;;17.60;99.90;;;18.40;100.00;98020.72;5002926;28;20463;-76
2022/06/07 08:06:50;;;;;;;1.93;1.37;;;17.60;99.90;;;18.51;100.00;98017.25;5003608;28;20896;-76
2022/06/07 08:09:22;;;;;;;4.50;1.37;;;17.90;99.90;;;18.55;100.00;98013.88;5001939;28;20465;-76
2022/06/07 08:11:54;;;;;;;2.53;1.40;;;17.90;99.90;;;18.62;100.00;98016.38;5004171;28;20451;-76
2022/06/07 08:14:24;;;;;;;2.07;1.40;;;18.00;99.90;;;18.59;98.37;98016.88;5002567;28;20514;-76
2022/06/07 08:16:55;;;;;;;4.63;1.70;;;17.80;99.90;;;18.66;99.63;98016.72;5001524;28;21018;-76
2022/06/07 08:19:24;;;;;;;2.50;1.10;;;18.00;99.90;;;18.72;99.33;98016.56;5000534;28;21031;-76
2022/06/07 08:21:54;;;;;;;1.90;1.37;;;18.10;99.90;;;18.74;99.27;98018.97;5002916;28;20911;-76
2022/06/07 08:24:29;;;;;;;2.37;1.30;;;18.00;99.90;;;18.78;99.59;98009.50;5002442;28;21190;-76
2022/06/07 08:27:01;;;;;;;1.73;1.03;;;18.00;99.90;;;18.83;99.13;98009.59;5002883;28;20508;-76
2022/06/07 08:29:32;;;;;;;2.73;1.20;;;18.10;99.90;;;18.85;99.12;98021.53;5002094;28;21003;-76
2022/06/07 08:32:02;;;;;;;5.77;1.60;;;18.10;99.90;;;18.93;100.00;98015.03;5000489;28;20494;-76
2022/06/07 08:37:37;;;;;;;3.13;1.33;;;18.30;99.90;;;19.07;100.00;98025.09;5001903;28;20461;-76
2022/06/07 08:40:12;;;;;;;3.97;1.30;;;18.40;99.90;;;19.03;100.00;98016.00;5002964;28;20443;-76
2022/06/07 08:42:53;;;;;;;3.27;1.70;;;18.30;99.90;;;19.09;100.00;98017.69;5001686;28;21454;-76
2022/06/07 08:45:28;;;;;;;2.60;1.10;;;18.40;99.90;;;19.09;100.00;98017.69;5002539;28;21008;-76
2022/06/07 08:48:07;;;;;;;2.17;1.30;;;18.30;99.90;;;19.17;100.00;98013.81;5001387;28;21196;-76
2022/06/07 08:50:43;;;;;;;2.30;1.40;;;18.40;99.90;;;19.28;100.00;98014.78;5002753;28;21149;-76
2022/06/07 08:53:17;;;;;;;3.10;1.50;;;18.50;99.90;;;19.30;97.74;98005.53;5001565;28;21558;-76
2022/06/07 08:55:52;;;;;;;1.53;1.17;;;18.60;99.90;;;19.37;98.53;98005.34;5001648;28;20470;-76
2022/06/07 08:58:28;;;;;;;1.70;1.20;;;18.70;99.90;;;19.39;99.31;97996.13;5001707;28;20469;-76
2022/06/07 09:01:04;;;;;;;5.00;1.73;;;18.80;99.90;;;19.38;98.67;98005.13;5002390;28;20439;-76
2022/06/07 09:03:51;;;;;;;2.10;1.33;;;18.90;99.90;;;19.48;100.00;98000.00;5001903;28;20470;-76
2022/06/07 09:06:25;;;;;;;10.43;1.50;;;18.90;99.90;;;19.43;98.15;98002.59;5000725;28;20872;-76
2022/06/07 09:09:00;;;;;;;3.37;1.57;;;18.90;99.90;;;19.37;94.78;98000.84;5004085;28;20463;-76
2022/06/07 09:14:35;;;;;;;3.30;1.50;;;18.70;99.90;;;19.34;92.48;97993.38;5002872;28;20460;-76
2022/06/07 09:17:13;;;;;;;3.50;1.30;;;18.60;99.90;;;19.33;93.26;97986.47;4999718;28;20522;-76
2022/06/07 09:19:45;;;;;;;1.30;1.10;;;18.60;99.90;;;19.31;94.56;97991.22;5001215;28;20447;-76
2022/06/07 09:22:23;;;;;;;2.07;1.17;;;18.70;99.90;;;19.35;96.68;97983.59;5000831;28;20455;-76
2022/06/07 09:25:02;;;;;;;3.10;1.50;;;18.80;99.90;;;19.39;95.86;97984.72;5000171;28;20493;-76
2022/06/07 09:27:34;;;;;;;3.00;1.40;;;18.80;99.90;;;19.40;95.56;97971.19;5000572;28;20510;-76
2022/06/07 09:30:21;;;;;;;2.20;1.50;;;18.80;99.90;;;19.42;96.19;97978.94;5001052;28;20455;-75
2022/06/07 09:32:52;;;;;;;4.33;1.53;;;18.80;99.90;;;19.43;96.41;97975.25;5000568;28;21041;-76
2022/06/07 09:35:38;;;;;;;2.27;1.40;;;18.80;99.90;;;19.44;96.39;97974.19;4999694;28;20459;-76
2022/06/07 09:38:15;;;;;;;1.63;1.37;;;18.80;99.90;;;19.54;98.41;97977.78;5001535;28;20465;-76
2022/06/07 09:40:57;;;;;;;3.20;1.50;;;18.90;99.90;;;19.66;100.00;97968.91;5001172;28;20448;-76
2022/06/07 09:43:38;;;;;;;3.30;1.50;;;19.10;99.90;;;19.63;97.51;97972.84;5003115;28;20876;-76
2022/06/07 09:46:22;;;;;;;3.23;1.53;;;19.00;99.90;;;19.57;91.25;97972.00;4999122;28;20874;-76
2022/06/07 09:48:52;;;;;;;1.40;1.10;;;18.80;99.90;;;19.59;90.94;97969.09;5000715;28;20555;-76
2022/06/07 09:51:26;;;;;;;2.90;1.20;;;18.90;99.90;;;19.53;91.87;97976.19;5001392;28;20448;-76
2022/06/07 09:54:03;;;;;;;2.57;1.33;;;18.80;99.90;;;19.52;92.85;97968.47;5001143;28;20554;-76
2022/06/07 09:56:41;;;;;;;1.73;1.20;;;18.80;99.90;;;19.64;93.37;97971.00;5001150;28;21052;-76
2022/06/07 09:59:43;;;;;;;2.60;1.40;;;18.90;99.90;;;19.65;89.72;97964.63;4999424;28;20478;-76
2022/06/07 10:03:17;;;;;;;5.23;1.90;;;19.00;99.90;;;19.73;92.42;97969.53;5001126;28;20488;-76
2022/06/07 10:06:14;;;;;;;2.90;2.13;;;18.90;99.90;;;19.80;90.07;97955.03;5000164;28;20459;-76
2022/06/07 10:09:22;;;;;;;1.83;1.60;;;19.10;99.90;;;19.96;91.59;97950.66;4999948;28;21030;-76
2022/06/07 10:12:11;;;;;;;8.03;1.97;;;19.30;99.90;;;19.95;86.34;97954.41;4999342;28;20543;-76
2022/06/07 10:14:51;;;;;;;3.53;1.80;;;19.20;99.90;;;20.05;89.36;97955.31;5001557;28;20452;-76
2022/06/07 10:18:17;;;;;;;14.40;2.40;;;19.30;99.90;;;20.16;87.19;97955.41;4999542;28;20455;-75
2022/06/07 10:21:13;;;;;;;5.40;1.43;;;19.40;99.90;;;20.21;86.96;97948.28;5000596;28;20451;-76
2022/06/07 10:24:04;;;;;;;6.40;2.00;;;19.50;99.90;;;20.28;85.89;97946.25;4999199;28;20578;-76
2022/06/07 10:26:49;;;;;;;4.53;1.80;;;19.60;99.60;;;20.37;87.17;97944.75;4999935;28;20558;-76
2022/06/07 10:29:41;;;;;;;4.33;1.80;;;19.80;99.90;;;20.37;87.76;97955.41;5000973;28;20505;-76
2022/06/07 10:32:28;;;;;;;5.70;2.00;;;19.70;99.90;;;20.43;86.88;97966.84;5001748;28;20949;-76
2022/06/07 10:35:17;;;;;;;2.70;1.90;;;19.70;99.90;;;20.38;86.05;97956.97;5000687;28;20529;-76
2022/06/07 10:38:18;;;;;;;7.70;1.67;;;19.70;99.70;;;20.32;90.34;97968.63;5001589;28;20461;-76
2022/06/07 10:41:05;;;;;;;3.30;1.80;;;19.70;99.90;;;20.16;95.61;97974.81;4999555;28;21016;-75
2022/06/07 10:43:53;;;;;;;3.53;1.43;;;19.40;99.90;;;20.16;98.72;97964.19;4998819;28;20462;-76
2022/06/07 10:46:23;;;;;;;4.60;1.47;;;19.50;99.90;;;20.06;97.23;97980.00;5001038;28;20463;-76
2022/06/07 10:49:15;;;;;;;2.87;1.40;;;19.40;99.90;;;20.05;97.98;97962.47;5001521;28;20499;-76
2022/06/07 10:55:05;;;;;;;3.17;1.80;;;19.40;99.90;;;19.98;95.92;97956.53;4999987;28;20459;-76
2022/06/07 10:57:44;;;;;;;3.90;1.80;;;19.40;99.90;;;19.93;95.44;97959.94;4999281;28;20468;-76
2022/06/07 11:00:35;;;;;;;3.57;1.80;;;19.20;99.90;;;19.97;95.33;97954.94;5003647;28;20478;-76
2022/06/07 11:03:26;;;;;;;5.03;1.60;;;19.20;99.90;;;19.98;94.78;97954.69;5003236;28;20510;-76